<?xml version="1.0" encoding="UTF-8" standalone="no" ?>
<gpx xmlns="http://www.topografix.com/GPX/1/1" xmlns:xsi="http://www.w3.org/2001/XMLSchema-instance" xsi:schemaLocation="http://www.topografix.com/GPX/1/1 http://www.topografix.com/GPX/1/1/gpx.xsd" version="1.1" creator="VisuGPX - https://www.visugpx.com">
  <metadata>
    <name>VTT Vitrey sur mance</name>
    <desc><![CDATA[VTT à Vitrey Sur mance






]]></desc>
  </metadata>
  <trk>
    <name><![CDATA[ACTIVE LOG 009]]></name>
    <trkseg>
      <trkpt lat="47.814" lon="5.76097">
        <ele>291.8974609</ele>
        <time>2011-11-13T13:29:36Z</time>
      </trkpt>
      <trkpt lat="47.81379" lon="5.7611">
        <ele>288.0522461</ele>
        <time>2011-11-13T13:29:57Z</time>
      </trkpt>
      <trkpt lat="47.81379" lon="5.7611">
        <ele>284.6876221</ele>
        <time>2011-11-13T13:30:00Z</time>
      </trkpt>
      <trkpt lat="47.81378" lon="5.76074">
        <ele>251.5220947</ele>
        <time>2011-11-13T13:35:48Z</time>
      </trkpt>
      <trkpt lat="47.81406" lon="5.76058">
        <ele>254.8865967</ele>
        <time>2011-11-13T13:36:00Z</time>
      </trkpt>
      <trkpt lat="47.81408" lon="5.76032">
        <ele>257.2900391</ele>
        <time>2011-11-13T13:36:06Z</time>
      </trkpt>
      <trkpt lat="47.81386" lon="5.76008">
        <ele>256.8093262</ele>
        <time>2011-11-13T13:36:16Z</time>
      </trkpt>
      <trkpt lat="47.81385" lon="5.76006">
        <ele>256.3287354</ele>
        <time>2011-11-13T13:36:29Z</time>
      </trkpt>
      <trkpt lat="47.81358" lon="5.76127">
        <ele>250.560791</ele>
        <time>2011-11-13T13:37:15Z</time>
      </trkpt>
      <trkpt lat="47.81411" lon="5.76202">
        <ele>248.6381836</ele>
        <time>2011-11-13T13:37:35Z</time>
      </trkpt>
      <trkpt lat="47.81351" lon="5.76125">
        <ele>250.0802002</ele>
        <time>2011-11-13T13:37:59Z</time>
      </trkpt>
      <trkpt lat="47.81293" lon="5.76219">
        <ele>257.2900391</ele>
        <time>2011-11-13T13:39:10Z</time>
      </trkpt>
      <trkpt lat="47.8125" lon="5.76349">
        <ele>269.3065186</ele>
        <time>2011-11-13T13:40:11Z</time>
      </trkpt>
      <trkpt lat="47.81243" lon="5.76361">
        <ele>270.2677002</ele>
        <time>2011-11-13T13:40:18Z</time>
      </trkpt>
      <trkpt lat="47.81201" lon="5.76381">
        <ele>275.0744629</ele>
        <time>2011-11-13T13:40:49Z</time>
      </trkpt>
      <trkpt lat="47.81192" lon="5.76387">
        <ele>276.0356445</ele>
        <time>2011-11-13T13:41:10Z</time>
      </trkpt>
      <trkpt lat="47.8118" lon="5.76461">
        <ele>282.7650146</ele>
        <time>2011-11-13T13:41:48Z</time>
      </trkpt>
      <trkpt lat="47.8117" lon="5.76544">
        <ele>288.532959</ele>
        <time>2011-11-13T13:42:28Z</time>
      </trkpt>
      <trkpt lat="47.81141" lon="5.76576">
        <ele>289.9748535</ele>
        <time>2011-11-13T13:43:39Z</time>
      </trkpt>
      <trkpt lat="47.80992" lon="5.76655">
        <ele>277.958252</ele>
        <time>2011-11-13T13:44:12Z</time>
      </trkpt>
      <trkpt lat="47.80792" lon="5.76727">
        <ele>274.59375</ele>
        <time>2011-11-13T13:44:44Z</time>
      </trkpt>
      <trkpt lat="47.80746" lon="5.7686">
        <ele>269.7871094</ele>
        <time>2011-11-13T13:45:04Z</time>
      </trkpt>
      <trkpt lat="47.80672" lon="5.76988">
        <ele>264.4998779</ele>
        <time>2011-11-13T13:45:21Z</time>
      </trkpt>
      <trkpt lat="47.80577" lon="5.77225">
        <ele>267.864502</ele>
        <time>2011-11-13T13:47:01Z</time>
      </trkpt>
      <trkpt lat="47.80577" lon="5.77223">
        <ele>264.9805908</ele>
        <time>2011-11-13T13:47:03Z</time>
      </trkpt>
      <trkpt lat="47.80595" lon="5.77388">
        <ele>257.2900391</ele>
        <time>2011-11-13T13:50:41Z</time>
      </trkpt>
      <trkpt lat="47.80581" lon="5.77421">
        <ele>258.7319336</ele>
        <time>2011-11-13T13:50:51Z</time>
      </trkpt>
      <trkpt lat="47.80422" lon="5.77511">
        <ele>245.7541504</ele>
        <time>2011-11-13T13:51:21Z</time>
      </trkpt>
      <trkpt lat="47.80287" lon="5.77671">
        <ele>241.4282227</ele>
        <time>2011-11-13T13:51:45Z</time>
      </trkpt>
      <trkpt lat="47.80186" lon="5.77773">
        <ele>241.4282227</ele>
        <time>2011-11-13T13:52:05Z</time>
      </trkpt>
      <trkpt lat="47.8004" lon="5.77966">
        <ele>239.5054932</ele>
        <time>2011-11-13T13:52:50Z</time>
      </trkpt>
      <trkpt lat="47.79894" lon="5.78026">
        <ele>239.0249023</ele>
        <time>2011-11-13T13:53:23Z</time>
      </trkpt>
      <trkpt lat="47.79846" lon="5.78026">
        <ele>238.5443115</ele>
        <time>2011-11-13T13:53:37Z</time>
      </trkpt>
      <trkpt lat="47.79784" lon="5.77999">
        <ele>235.1796875</ele>
        <time>2011-11-13T13:53:51Z</time>
      </trkpt>
      <trkpt lat="47.7976" lon="5.78014">
        <ele>234.6990967</ele>
        <time>2011-11-13T13:53:56Z</time>
      </trkpt>
      <trkpt lat="47.79737" lon="5.78065">
        <ele>234.2183838</ele>
        <time>2011-11-13T13:54:05Z</time>
      </trkpt>
      <trkpt lat="47.79688" lon="5.78078">
        <ele>234.6990967</ele>
        <time>2011-11-13T13:54:17Z</time>
      </trkpt>
      <trkpt lat="47.79533" lon="5.7804">
        <ele>239.5054932</ele>
        <time>2011-11-13T13:55:13Z</time>
      </trkpt>
      <trkpt lat="47.79487" lon="5.78263">
        <ele>236.1409912</ele>
        <time>2011-11-13T13:57:51Z</time>
      </trkpt>
      <trkpt lat="47.79377" lon="5.7856">
        <ele>236.1409912</ele>
        <time>2011-11-13T13:58:31Z</time>
      </trkpt>
      <trkpt lat="47.79292" lon="5.78745">
        <ele>231.3343506</ele>
        <time>2011-11-13T13:58:56Z</time>
      </trkpt>
      <trkpt lat="47.79255" lon="5.78917">
        <ele>234.2183838</ele>
        <time>2011-11-13T13:59:19Z</time>
      </trkpt>
      <trkpt lat="47.7926" lon="5.79109">
        <ele>234.6990967</ele>
        <time>2011-11-13T13:59:47Z</time>
      </trkpt>
      <trkpt lat="47.79295" lon="5.79174">
        <ele>233.2570801</ele>
        <time>2011-11-13T13:59:58Z</time>
      </trkpt>
      <trkpt lat="47.79305" lon="5.79287">
        <ele>233.2570801</ele>
        <time>2011-11-13T14:00:13Z</time>
      </trkpt>
      <trkpt lat="47.79287" lon="5.79392">
        <ele>231.3343506</ele>
        <time>2011-11-13T14:00:27Z</time>
      </trkpt>
      <trkpt lat="47.7916" lon="5.79569">
        <ele>235.1796875</ele>
        <time>2011-11-13T14:01:08Z</time>
      </trkpt>
      <trkpt lat="47.79112" lon="5.79657">
        <ele>240.467041</ele>
        <time>2011-11-13T14:01:31Z</time>
      </trkpt>
      <trkpt lat="47.79078" lon="5.79801">
        <ele>239.5054932</ele>
        <time>2011-11-13T14:02:03Z</time>
      </trkpt>
      <trkpt lat="47.79107" lon="5.79944">
        <ele>239.5054932</ele>
        <time>2011-11-13T14:05:35Z</time>
      </trkpt>
      <trkpt lat="47.79158" lon="5.80006">
        <ele>239.5054932</ele>
        <time>2011-11-13T14:05:58Z</time>
      </trkpt>
      <trkpt lat="47.79224" lon="5.80158">
        <ele>241.9089355</ele>
        <time>2011-11-13T14:06:34Z</time>
      </trkpt>
      <trkpt lat="47.79228" lon="5.80168">
        <ele>241.9089355</ele>
        <time>2011-11-13T14:06:47Z</time>
      </trkpt>
      <trkpt lat="47.79346" lon="5.80438">
        <ele>239.5054932</ele>
        <time>2011-11-13T14:07:52Z</time>
      </trkpt>
      <trkpt lat="47.79411" lon="5.80614">
        <ele>237.5828857</ele>
        <time>2011-11-13T14:08:24Z</time>
      </trkpt>
      <trkpt lat="47.79503" lon="5.80939">
        <ele>238.5443115</ele>
        <time>2011-11-13T14:09:31Z</time>
      </trkpt>
      <trkpt lat="47.7953" lon="5.81028">
        <ele>237.5828857</ele>
        <time>2011-11-13T14:09:50Z</time>
      </trkpt>
      <trkpt lat="47.79559" lon="5.81133">
        <ele>232.7764893</ele>
        <time>2011-11-13T14:10:06Z</time>
      </trkpt>
      <trkpt lat="47.79664" lon="5.81359">
        <ele>232.2957764</ele>
        <time>2011-11-13T14:10:45Z</time>
      </trkpt>
      <trkpt lat="47.79702" lon="5.81401">
        <ele>232.2957764</ele>
        <time>2011-11-13T14:10:59Z</time>
      </trkpt>
      <trkpt lat="47.79645" lon="5.81389">
        <ele>234.2183838</ele>
        <time>2011-11-13T14:11:24Z</time>
      </trkpt>
      <trkpt lat="47.79605" lon="5.81351">
        <ele>236.6217041</ele>
        <time>2011-11-13T14:11:47Z</time>
      </trkpt>
      <trkpt lat="47.79545" lon="5.81381">
        <ele>240.9476318</ele>
        <time>2011-11-13T14:12:58Z</time>
      </trkpt>
      <trkpt lat="47.79448" lon="5.81379">
        <ele>256.3287354</ele>
        <time>2011-11-13T14:14:01Z</time>
      </trkpt>
      <trkpt lat="47.79441" lon="5.81377">
        <ele>256.8093262</ele>
        <time>2011-11-13T14:14:05Z</time>
      </trkpt>
      <trkpt lat="47.79403" lon="5.81425">
        <ele>266.4224854</ele>
        <time>2011-11-13T14:17:06Z</time>
      </trkpt>
      <trkpt lat="47.79343" lon="5.81553">
        <ele>285.6488037</ele>
        <time>2011-11-13T14:18:23Z</time>
      </trkpt>
      <trkpt lat="47.79317" lon="5.81581">
        <ele>293.8200684</ele>
        <time>2011-11-13T14:19:03Z</time>
      </trkpt>
      <trkpt lat="47.79282" lon="5.81666">
        <ele>309.6818848</ele>
        <time>2011-11-13T14:28:20Z</time>
      </trkpt>
      <trkpt lat="47.79264" lon="5.81692">
        <ele>312.5657959</ele>
        <time>2011-11-13T14:28:54Z</time>
      </trkpt>
      <trkpt lat="47.79209" lon="5.81719">
        <ele>324.1015625</ele>
        <time>2011-11-13T14:29:34Z</time>
      </trkpt>
      <trkpt lat="47.79174" lon="5.8173">
        <ele>327.9467773</ele>
        <time>2011-11-13T14:30:00Z</time>
      </trkpt>
      <trkpt lat="47.79121" lon="5.81734">
        <ele>329.8695068</ele>
        <time>2011-11-13T14:33:55Z</time>
      </trkpt>
      <trkpt lat="47.78985" lon="5.8177">
        <ele>326.0241699</ele>
        <time>2011-11-13T14:35:36Z</time>
      </trkpt>
      <trkpt lat="47.78768" lon="5.81838">
        <ele>313.5272217</ele>
        <time>2011-11-13T14:37:48Z</time>
      </trkpt>
      <trkpt lat="47.78699" lon="5.81834">
        <ele>312.0852051</ele>
        <time>2011-11-13T14:38:13Z</time>
      </trkpt>
      <trkpt lat="47.78627" lon="5.81898">
        <ele>304.3946533</ele>
        <time>2011-11-13T14:38:35Z</time>
      </trkpt>
      <trkpt lat="47.78308" lon="5.82238">
        <ele>296.2235107</ele>
        <time>2011-11-13T14:42:18Z</time>
      </trkpt>
      <trkpt lat="47.78298" lon="5.82251">
        <ele>295.7426758</ele>
        <time>2011-11-13T14:42:25Z</time>
      </trkpt>
      <trkpt lat="47.7823" lon="5.82304">
        <ele>289.0135498</ele>
        <time>2011-11-13T14:42:53Z</time>
      </trkpt>
      <trkpt lat="47.78216" lon="5.82313">
        <ele>283.2456055</ele>
        <time>2011-11-13T14:43:02Z</time>
      </trkpt>
      <trkpt lat="47.78201" lon="5.82382">
        <ele>272.6711426</ele>
        <time>2011-11-13T14:43:56Z</time>
      </trkpt>
      <trkpt lat="47.78226" lon="5.82468">
        <ele>278.4389648</ele>
        <time>2011-11-13T14:44:21Z</time>
      </trkpt>
      <trkpt lat="47.78243" lon="5.82486">
        <ele>280.8424072</ele>
        <time>2011-11-13T14:44:30Z</time>
      </trkpt>
      <trkpt lat="47.78267" lon="5.82408">
        <ele>288.532959</ele>
        <time>2011-11-13T14:44:59Z</time>
      </trkpt>
      <trkpt lat="47.78284" lon="5.82368">
        <ele>291.416748</ele>
        <time>2011-11-13T14:45:14Z</time>
      </trkpt>
      <trkpt lat="47.78311" lon="5.82374">
        <ele>292.3781738</ele>
        <time>2011-11-13T14:45:28Z</time>
      </trkpt>
      <trkpt lat="47.78257" lon="5.82376">
        <ele>288.0522461</ele>
        <time>2011-11-13T14:45:44Z</time>
      </trkpt>
      <trkpt lat="47.78258" lon="5.82461">
        <ele>284.2069092</ele>
        <time>2011-11-13T14:45:52Z</time>
      </trkpt>
      <trkpt lat="47.78244" lon="5.82483">
        <ele>280.3616943</ele>
        <time>2011-11-13T14:45:56Z</time>
      </trkpt>
      <trkpt lat="47.78202" lon="5.82408">
        <ele>272.1904297</ele>
        <time>2011-11-13T14:46:07Z</time>
      </trkpt>
      <trkpt lat="47.78182" lon="5.82398">
        <ele>270.2677002</ele>
        <time>2011-11-13T14:46:12Z</time>
      </trkpt>
      <trkpt lat="47.78065" lon="5.82473">
        <ele>269.7871094</ele>
        <time>2011-11-13T14:46:41Z</time>
      </trkpt>
      <trkpt lat="47.78043" lon="5.82532">
        <ele>267.3839111</ele>
        <time>2011-11-13T14:47:29Z</time>
      </trkpt>
      <trkpt lat="47.78118" lon="5.82596">
        <ele>266.9031982</ele>
        <time>2011-11-13T14:52:45Z</time>
      </trkpt>
      <trkpt lat="47.78097" lon="5.82576">
        <ele>265.4613037</ele>
        <time>2011-11-13T14:55:04Z</time>
      </trkpt>
      <trkpt lat="47.78068" lon="5.82491">
        <ele>267.864502</ele>
        <time>2011-11-13T14:59:12Z</time>
      </trkpt>
      <trkpt lat="47.78067" lon="5.82474">
        <ele>267.3839111</ele>
        <time>2011-11-13T14:59:20Z</time>
      </trkpt>
      <trkpt lat="47.78117" lon="5.82452">
        <ele>265.4613037</ele>
        <time>2011-11-13T14:59:44Z</time>
      </trkpt>
      <trkpt lat="47.78156" lon="5.82404">
        <ele>266.9031982</ele>
        <time>2011-11-13T15:00:01Z</time>
      </trkpt>
      <trkpt lat="47.78188" lon="5.82398">
        <ele>269.7871094</ele>
        <time>2011-11-13T15:00:18Z</time>
      </trkpt>
      <trkpt lat="47.7819" lon="5.82399">
        <ele>269.7871094</ele>
        <time>2011-11-13T15:00:20Z</time>
      </trkpt>
      <trkpt lat="47.78207" lon="5.82371">
        <ele>270.2677002</ele>
        <time>2011-11-13T15:00:24Z</time>
      </trkpt>
      <trkpt lat="47.78208" lon="5.82291">
        <ele>271.7097168</ele>
        <time>2011-11-13T15:00:52Z</time>
      </trkpt>
      <trkpt lat="47.78175" lon="5.8208">
        <ele>276.9970703</ele>
        <time>2011-11-13T15:02:01Z</time>
      </trkpt>
      <trkpt lat="47.78195" lon="5.81889">
        <ele>283.2456055</ele>
        <time>2011-11-13T15:03:24Z</time>
      </trkpt>
      <trkpt lat="47.78196" lon="5.81872">
        <ele>283.2456055</ele>
        <time>2011-11-13T15:03:37Z</time>
      </trkpt>
      <trkpt lat="47.78168" lon="5.81807">
        <ele>283.7261963</ele>
        <time>2011-11-13T15:04:19Z</time>
      </trkpt>
      <trkpt lat="47.77938" lon="5.81463">
        <ele>293.3393555</ele>
        <time>2011-11-13T15:06:34Z</time>
      </trkpt>
      <trkpt lat="47.77853" lon="5.81335">
        <ele>283.7261963</ele>
        <time>2011-11-13T15:06:59Z</time>
      </trkpt>
      <trkpt lat="47.77824" lon="5.81269">
        <ele>285.6488037</ele>
        <time>2011-11-13T15:07:24Z</time>
      </trkpt>
      <trkpt lat="47.77824" lon="5.81269">
        <ele>296.2235107</ele>
        <time>2011-11-13T15:10:39Z</time>
      </trkpt>
      <trkpt lat="47.77783" lon="5.81231">
        <ele>297.1846924</ele>
        <time>2011-11-13T15:11:00Z</time>
      </trkpt>
      <trkpt lat="47.7778" lon="5.81224">
        <ele>298.1461182</ele>
        <time>2011-11-13T15:11:12Z</time>
      </trkpt>
      <trkpt lat="47.7778" lon="5.81224">
        <ele>309.2011719</ele>
        <time>2011-11-13T15:12:35Z</time>
      </trkpt>
      <trkpt lat="47.77814" lon="5.81092">
        <ele>309.2011719</ele>
        <time>2011-11-13T15:16:46Z</time>
      </trkpt>
      <trkpt lat="47.77817" lon="5.81086">
        <ele>309.6818848</ele>
        <time>2011-11-13T15:16:50Z</time>
      </trkpt>
      <trkpt lat="47.77946" lon="5.80891">
        <ele>323.6209717</ele>
        <time>2011-11-13T15:19:07Z</time>
      </trkpt>
      <trkpt lat="47.77994" lon="5.80836">
        <ele>327.9467773</ele>
        <time>2011-11-13T15:19:50Z</time>
      </trkpt>
      <trkpt lat="47.78111" lon="5.80698">
        <ele>335.1567383</ele>
        <time>2011-11-13T15:21:29Z</time>
      </trkpt>
      <trkpt lat="47.7815" lon="5.80635">
        <ele>339.482666</ele>
        <time>2011-11-13T15:22:15Z</time>
      </trkpt>
      <trkpt lat="47.77944" lon="5.80896">
        <ele>319.7756348</ele>
        <time>2011-11-13T15:24:16Z</time>
      </trkpt>
      <trkpt lat="47.77845" lon="5.8104">
        <ele>312.0852051</ele>
        <time>2011-11-13T15:24:47Z</time>
      </trkpt>
      <trkpt lat="47.77815" lon="5.81092">
        <ele>307.2785645</ele>
        <time>2011-11-13T15:25:14Z</time>
      </trkpt>
      <trkpt lat="47.7782" lon="5.81102">
        <ele>306.3172607</ele>
        <time>2011-11-13T15:25:26Z</time>
      </trkpt>
      <trkpt lat="47.77847" lon="5.81037">
        <ele>311.1237793</ele>
        <time>2011-11-13T15:27:23Z</time>
      </trkpt>
      <trkpt lat="47.77982" lon="5.8085">
        <ele>323.6209717</ele>
        <time>2011-11-13T15:28:31Z</time>
      </trkpt>
      <trkpt lat="47.78115" lon="5.80689">
        <ele>332.75354</ele>
        <time>2011-11-13T15:29:33Z</time>
      </trkpt>
      <trkpt lat="47.78147" lon="5.80632">
        <ele>336.598877</ele>
        <time>2011-11-13T15:30:01Z</time>
      </trkpt>
      <trkpt lat="47.78148" lon="5.80629">
        <ele>336.598877</ele>
        <time>2011-11-13T15:30:36Z</time>
      </trkpt>
      <trkpt lat="47.78104" lon="5.80323">
        <ele>342.84729</ele>
        <time>2011-11-13T15:34:09Z</time>
      </trkpt>
      <trkpt lat="47.78089" lon="5.80266">
        <ele>343.3278809</ele>
        <time>2011-11-13T15:34:25Z</time>
      </trkpt>
      <trkpt lat="47.78085" lon="5.80075">
        <ele>343.8085938</ele>
        <time>2011-11-13T15:35:14Z</time>
      </trkpt>
      <trkpt lat="47.78073" lon="5.79803">
        <ele>335.1567383</ele>
        <time>2011-11-13T15:35:48Z</time>
      </trkpt>
      <trkpt lat="47.78096" lon="5.79472">
        <ele>328.4276123</ele>
        <time>2011-11-13T15:36:24Z</time>
      </trkpt>
      <trkpt lat="47.78071" lon="5.79442">
        <ele>328.9083252</ele>
        <time>2011-11-13T15:36:36Z</time>
      </trkpt>
      <trkpt lat="47.78078" lon="5.79133">
        <ele>323.6209717</ele>
        <time>2011-11-13T15:38:12Z</time>
      </trkpt>
      <trkpt lat="47.78189" lon="5.78917">
        <ele>328.4276123</ele>
        <time>2011-11-13T15:39:42Z</time>
      </trkpt>
      <trkpt lat="47.78287" lon="5.78891">
        <ele>330.3502197</ele>
        <time>2011-11-13T15:40:20Z</time>
      </trkpt>
      <trkpt lat="47.78346" lon="5.78876">
        <ele>330.3502197</ele>
        <time>2011-11-13T15:40:40Z</time>
      </trkpt>
      <trkpt lat="47.7863" lon="5.78804">
        <ele>326.5048828</ele>
        <time>2011-11-13T15:41:53Z</time>
      </trkpt>
      <trkpt lat="47.7863" lon="5.78786">
        <ele>322.659668</ele>
        <time>2011-11-13T15:42:07Z</time>
      </trkpt>
      <trkpt lat="47.78626" lon="5.78714">
        <ele>322.1789551</ele>
        <time>2011-11-13T15:42:18Z</time>
      </trkpt>
      <trkpt lat="47.78592" lon="5.78439">
        <ele>310.1624756</ele>
        <time>2011-11-13T15:42:58Z</time>
      </trkpt>
      <trkpt lat="47.7857" lon="5.78384">
        <ele>308.2398682</ele>
        <time>2011-11-13T15:43:10Z</time>
      </trkpt>
      <trkpt lat="47.78518" lon="5.77985">
        <ele>314.9691162</ele>
        <time>2011-11-13T15:45:27Z</time>
      </trkpt>
      <trkpt lat="47.78509" lon="5.77929">
        <ele>314.0078125</ele>
        <time>2011-11-13T15:45:42Z</time>
      </trkpt>
      <trkpt lat="47.78447" lon="5.77944">
        <ele>316.4110107</ele>
        <time>2011-11-13T15:46:16Z</time>
      </trkpt>
      <trkpt lat="47.78376" lon="5.77888">
        <ele>317.8530273</ele>
        <time>2011-11-13T15:47:14Z</time>
      </trkpt>
      <trkpt lat="47.7834" lon="5.77612">
        <ele>318.3336182</ele>
        <time>2011-11-13T15:49:09Z</time>
      </trkpt>
      <trkpt lat="47.78311" lon="5.77213">
        <ele>307.2785645</ele>
        <time>2011-11-13T15:52:09Z</time>
      </trkpt>
      <trkpt lat="47.78261" lon="5.77189">
        <ele>308.2398682</ele>
        <time>2011-11-13T15:52:41Z</time>
      </trkpt>
      <trkpt lat="47.78171" lon="5.77209">
        <ele>313.5272217</ele>
        <time>2011-11-13T15:53:32Z</time>
      </trkpt>
      <trkpt lat="47.78166" lon="5.77196">
        <ele>313.0465088</ele>
        <time>2011-11-13T15:53:49Z</time>
      </trkpt>
      <trkpt lat="47.78217" lon="5.77115">
        <ele>309.6818848</ele>
        <time>2011-11-13T15:55:28Z</time>
      </trkpt>
      <trkpt lat="47.78273" lon="5.76988">
        <ele>302.9525146</ele>
        <time>2011-11-13T15:55:55Z</time>
      </trkpt>
      <trkpt lat="47.78298" lon="5.76784">
        <ele>298.626709</ele>
        <time>2011-11-13T15:56:27Z</time>
      </trkpt>
      <trkpt lat="47.78306" lon="5.76652">
        <ele>289.4941406</ele>
        <time>2011-11-13T15:56:43Z</time>
      </trkpt>
      <trkpt lat="47.78341" lon="5.76549">
        <ele>281.8035889</ele>
        <time>2011-11-13T15:56:54Z</time>
      </trkpt>
      <trkpt lat="47.78376" lon="5.76428">
        <ele>269.3065186</ele>
        <time>2011-11-13T15:58:41Z</time>
      </trkpt>
      <trkpt lat="47.78432" lon="5.7641">
        <ele>261.1352539</ele>
        <time>2011-11-13T15:59:38Z</time>
      </trkpt>
      <trkpt lat="47.7843" lon="5.76384">
        <ele>259.6933594</ele>
        <time>2011-11-13T15:59:46Z</time>
      </trkpt>
      <trkpt lat="47.78355" lon="5.76282">
        <ele>263.5385742</ele>
        <time>2011-11-13T16:00:18Z</time>
      </trkpt>
      <trkpt lat="47.78306" lon="5.7624">
        <ele>266.4224854</ele>
        <time>2011-11-13T16:00:37Z</time>
      </trkpt>
      <trkpt lat="47.77936" lon="5.76044">
        <ele>282.2843018</ele>
        <time>2011-11-13T16:03:13Z</time>
      </trkpt>
      <trkpt lat="47.77885" lon="5.75927">
        <ele>268.3450928</ele>
        <time>2011-11-13T16:05:26Z</time>
      </trkpt>
      <trkpt lat="47.77929" lon="5.75892">
        <ele>262.5771484</ele>
        <time>2011-11-13T16:05:33Z</time>
      </trkpt>
      <trkpt lat="47.78026" lon="5.75877">
        <ele>261.1352539</ele>
        <time>2011-11-13T16:05:45Z</time>
      </trkpt>
      <trkpt lat="47.78131" lon="5.75909">
        <ele>273.6324463</ele>
        <time>2011-11-13T16:06:23Z</time>
      </trkpt>
      <trkpt lat="47.78152" lon="5.75881">
        <ele>276.5163574</ele>
        <time>2011-11-13T16:06:39Z</time>
      </trkpt>
      <trkpt lat="47.78149" lon="5.75831">
        <ele>280.3616943</ele>
        <time>2011-11-13T16:06:57Z</time>
      </trkpt>
      <trkpt lat="47.78149" lon="5.75754">
        <ele>284.2069092</ele>
        <time>2011-11-13T16:07:30Z</time>
      </trkpt>
      <trkpt lat="47.78262" lon="5.75754">
        <ele>298.1461182</ele>
        <time>2011-11-13T16:08:40Z</time>
      </trkpt>
      <trkpt lat="47.78293" lon="5.75744">
        <ele>301.5106201</ele>
        <time>2011-11-13T16:08:57Z</time>
      </trkpt>
      <trkpt lat="47.78355" lon="5.75665">
        <ele>304.8752441</ele>
        <time>2011-11-13T16:09:33Z</time>
      </trkpt>
      <trkpt lat="47.78314" lon="5.75612">
        <ele>307.2785645</ele>
        <time>2011-11-13T16:09:54Z</time>
      </trkpt>
      <trkpt lat="47.78291" lon="5.75535">
        <ele>308.720459</ele>
        <time>2011-11-13T16:10:12Z</time>
      </trkpt>
      <trkpt lat="47.78304" lon="5.75474">
        <ele>310.6430664</ele>
        <time>2011-11-13T16:10:27Z</time>
      </trkpt>
      <trkpt lat="47.78422" lon="5.75459">
        <ele>307.7592773</ele>
        <time>2011-11-13T16:10:54Z</time>
      </trkpt>
      <trkpt lat="47.78483" lon="5.75409">
        <ele>301.0299072</ele>
        <time>2011-11-13T16:11:06Z</time>
      </trkpt>
      <trkpt lat="47.78517" lon="5.75392">
        <ele>295.7426758</ele>
        <time>2011-11-13T16:11:11Z</time>
      </trkpt>
      <trkpt lat="47.78531" lon="5.75394">
        <ele>294.3007813</ele>
        <time>2011-11-13T16:11:14Z</time>
      </trkpt>
      <trkpt lat="47.78558" lon="5.75528">
        <ele>297.6654053</ele>
        <time>2011-11-13T16:11:34Z</time>
      </trkpt>
      <trkpt lat="47.78589" lon="5.75694">
        <ele>298.1461182</ele>
        <time>2011-11-13T16:12:03Z</time>
      </trkpt>
      <trkpt lat="47.78635" lon="5.75787">
        <ele>293.3393555</ele>
        <time>2011-11-13T16:12:17Z</time>
      </trkpt>
      <trkpt lat="47.78746" lon="5.75906">
        <ele>275.5550537</ele>
        <time>2011-11-13T16:12:35Z</time>
      </trkpt>
      <trkpt lat="47.78845" lon="5.75853">
        <ele>263.5385742</ele>
        <time>2011-11-13T16:12:46Z</time>
      </trkpt>
      <trkpt lat="47.78922" lon="5.75969">
        <ele>260.654541</ele>
        <time>2011-11-13T16:13:01Z</time>
      </trkpt>
      <trkpt lat="47.78972" lon="5.75757">
        <ele>252.0028076</ele>
        <time>2011-11-13T16:13:29Z</time>
      </trkpt>
      <trkpt lat="47.78995" lon="5.75655">
        <ele>245.2734375</ele>
        <time>2011-11-13T16:13:38Z</time>
      </trkpt>
      <trkpt lat="47.79064" lon="5.75579">
        <ele>247.1960449</ele>
        <time>2011-11-13T16:13:49Z</time>
      </trkpt>
      <trkpt lat="47.79089" lon="5.75579">
        <ele>251.0413818</ele>
        <time>2011-11-13T16:13:59Z</time>
      </trkpt>
      <trkpt lat="47.79125" lon="5.75576">
        <ele>252.4833984</ele>
        <time>2011-11-13T16:14:11Z</time>
      </trkpt>
      <trkpt lat="47.79173" lon="5.75466">
        <ele>258.2513428</ele>
        <time>2011-11-13T16:14:52Z</time>
      </trkpt>
      <trkpt lat="47.79148" lon="5.75506">
        <ele>262.5771484</ele>
        <time>2011-11-13T16:16:22Z</time>
      </trkpt>
      <trkpt lat="47.79126" lon="5.75575">
        <ele>252.4833984</ele>
        <time>2011-11-13T16:17:16Z</time>
      </trkpt>
      <trkpt lat="47.79049" lon="5.75586">
        <ele>247.1960449</ele>
        <time>2011-11-13T16:17:41Z</time>
      </trkpt>
      <trkpt lat="47.79105" lon="5.75714">
        <ele>245.7541504</ele>
        <time>2011-11-13T16:18:05Z</time>
      </trkpt>
      <trkpt lat="47.79131" lon="5.7571">
        <ele>246.2348633</ele>
        <time>2011-11-13T16:18:20Z</time>
      </trkpt>
      <trkpt lat="47.79173" lon="5.75758">
        <ele>248.1575928</ele>
        <time>2011-11-13T16:19:23Z</time>
      </trkpt>
      <trkpt lat="47.79227" lon="5.75889">
        <ele>254.4060059</ele>
        <time>2011-11-13T16:20:01Z</time>
      </trkpt>
      <trkpt lat="47.79303" lon="5.76082">
        <ele>253.4447021</ele>
        <time>2011-11-13T16:21:11Z</time>
      </trkpt>
      <trkpt lat="47.79364" lon="5.76199">
        <ele>252.0028076</ele>
        <time>2011-11-13T16:21:39Z</time>
      </trkpt>
      <trkpt lat="47.79581" lon="5.76527">
        <ele>247.1960449</ele>
        <time>2011-11-13T16:23:08Z</time>
      </trkpt>
      <trkpt lat="47.79664" lon="5.76553">
        <ele>250.560791</ele>
        <time>2011-11-13T16:23:48Z</time>
      </trkpt>
      <trkpt lat="47.79758" lon="5.76602">
        <ele>249.1187744</ele>
        <time>2011-11-13T16:24:16Z</time>
      </trkpt>
      <trkpt lat="47.79908" lon="5.76699">
        <ele>249.5994873</ele>
        <time>2011-11-13T16:25:07Z</time>
      </trkpt>
      <trkpt lat="47.80087" lon="5.76676">
        <ele>251.0413818</ele>
        <time>2011-11-13T16:26:18Z</time>
      </trkpt>
      <trkpt lat="47.80211" lon="5.76637">
        <ele>258.2513428</ele>
        <time>2011-11-13T16:28:40Z</time>
      </trkpt>
      <trkpt lat="47.80313" lon="5.76651">
        <ele>261.6159668</ele>
        <time>2011-11-13T16:29:26Z</time>
      </trkpt>
      <trkpt lat="47.80461" lon="5.7673">
        <ele>265.4613037</ele>
        <time>2011-11-13T16:30:25Z</time>
      </trkpt>
      <trkpt lat="47.80535" lon="5.76748">
        <ele>264.4998779</ele>
        <time>2011-11-13T16:30:55Z</time>
      </trkpt>
      <trkpt lat="47.80636" lon="5.7681">
        <ele>264.0192871</ele>
        <time>2011-11-13T16:31:28Z</time>
      </trkpt>
      <trkpt lat="47.80845" lon="5.76695">
        <ele>267.3839111</ele>
        <time>2011-11-13T16:33:03Z</time>
      </trkpt>
      <trkpt lat="47.80982" lon="5.76658">
        <ele>270.2677002</ele>
        <time>2011-11-13T16:33:55Z</time>
      </trkpt>
      <trkpt lat="47.81136" lon="5.76577">
        <ele>280.8424072</ele>
        <time>2011-11-13T16:35:27Z</time>
      </trkpt>
      <trkpt lat="47.81161" lon="5.76567">
        <ele>281.322998</ele>
        <time>2011-11-13T16:35:42Z</time>
      </trkpt>
      <trkpt lat="47.81185" lon="5.76393">
        <ele>265.9418945</ele>
        <time>2011-11-13T16:36:15Z</time>
      </trkpt>
      <trkpt lat="47.81225" lon="5.76381">
        <ele>262.0965576</ele>
        <time>2011-11-13T16:36:19Z</time>
      </trkpt>
      <trkpt lat="47.81253" lon="5.76346">
        <ele>258.7319336</ele>
        <time>2011-11-13T16:36:23Z</time>
      </trkpt>
      <trkpt lat="47.81287" lon="5.76235">
        <ele>247.6767578</ele>
        <time>2011-11-13T16:36:30Z</time>
      </trkpt>
      <trkpt lat="47.81366" lon="5.76106">
        <ele>240.467041</ele>
        <time>2011-11-13T16:37:25Z</time>
      </trkpt>
    </trkseg>
  </trk>
</gpx>